x

Neah Bay, - 6nm North Of Cape Flattery, Wa (traffic Separation Lighted Buoy) (46087) Wave Buoy

3:50pm - Sat 18th Apr 2015 All times are PDT. -7 hours from GMT.

  • Sig Wave height 5.2ft
  • Swell Direction
  • Peak Period 11s
  • Average Period 8s
  • Wind
    4mph, 9mph gusts
  • Sea Temp 51°f
  • Air Temp 52°f
  • Sea Pressure 1027.3mb
  • Neah Bay, - 6nm North Of Cape Flattery, Wa     (traffic Separation Lighted Buoy)
  • Neah Bay, - 6nm North Of Cape Flattery, Wa     (traffic Separation Lighted Buoy)

More Historic Weather Station data

Upgrade to MSW Pro to gain access to the past 30 days of data for over 8000 Wavebouys and Weather Stations around the globe.

Join Pro

Comparision Forecast

View Surf forecast
   
Sat 04/18 3:50pm 5ft 11s 8s 4 9 mph 1027.3mb 51f 52f
3:20pm  -   -   -  4 9 mph 1027.5mb 51f 52f
2:50pm 5.5ft 11s 8s 4 7 mph 1027.8mb 51f 51f
2:20pm  -   -   -  9 11 mph 1027.8mb 51f 51f
1:50pm 6ft 10s 8s 9 11 mph 1027.9mb 51f 51f
1:20pm  -   -   -  11 13 mph 1028mb 50f 50f
12:50pm 6.5ft 11s 8s 11 13 mph 1028.2mb 50f 50f
12:20pm  -   -   -  9 13 mph 1028.5mb 50f 50f
11:50am 7ft 11s 8s 13 16 mph 1028.5mb 50f 50f
11:20am  -   -   -  11 16 mph 1028.8mb 50f 49f
10:50am 7ft 11s 8s 11 13 mph 1029mb 50f 49f
10:20am  -   -   -  11 16 mph 1029.1mb 50f 49f
9:50am 7ft 11s 8s 11 16 mph 1029.2mb 49f 48f
9:20am  -   -   -  13 16 mph 1029mb 49f 48f
8:50am 7ft 8s 8s 13 16 mph 1028.8mb 49f 48f
8:20am  -   -   -  13 18 mph 1028.9mb 49f 48f
7:50am 7ft 13s 9s 13 16 mph 1028.8mb 49f 48f
7:20am  -   -   -  11 16 mph 1028.6mb 49f 47f
6:50am 7.5ft 11s 9s 11 13 mph 1028.3mb 49f 47f
6:20am  -   -   -  11 13 mph 1028.2mb 49f 48f
5:50am 8ft 12s 8s 11 16 mph 1028.1mb 49f 48f
5:20am  -   -   -  9 13 mph 1027.8mb 49f 48f
4:50am 8ft 13s 8s 9 13 mph 1027.5mb 49f 48f
4:20am  -   -   -  11 16 mph 1027mb 49f 48f
3:50am 8ft 9s 8s 7 11 mph 1027.3mb 49f 48f
3:20am  -   -   -  4 9 mph 1027.1mb 49f 48f
2:50am 8ft 13s 8s 7 9 mph 1027.1mb 49f 48f
2:20am  -   -   -  4 7 mph 1026.9mb 50f 49f
1:50am 8ft 14s 8s 4 7 mph 1027mb 50f 49f
1:20am  -   -   -  4 7 mph 1027mb 50f 50f
12:50am 8ft 9s 8s 7 13 mph 1026.7mb 50f 50f
12:20am  -   -   -  9 11 mph 1026.7mb 50f 51f
Fri 04/17 11:50pm 8ft 11s 8s 9 11 mph 1026.8mb 50f 50f
11:20pm  -   -   -  7 9 mph 1026.6mb 50f 50f
10:50pm 8ft 9s 8s 7
mph
1026.4mb 50f 50f
10:20pm  -   -   -  9
mph
1026.3mb 50f 50f
9:50pm 9ft 11s 8s 4 7 mph 1026.4mb 50f 51f
9:20pm  -   -   -  4 7 mph 1026.4mb 50f 51f
8:50pm 9ft 14s 8s 9 11 mph 1025.9mb 49f 51f
8:20pm  -   -   -  13 18 mph 1025.3mb 49f 51f
7:50pm 8.5ft 14s 8s 16 20 mph 1025.2mb 49f 51f
7:20pm  -   -   -  16 20 mph 1025.1mb 50f 51f
6:50pm 8ft 14s 8s 16 20 mph 1025.2mb 50f 51f
6:20pm  -   -   -  18 22 mph 1025.4mb 50f 51f
5:50pm 7.5ft 13s 7s 18 20 mph 1025.4mb 50f 51f
5:20pm  -   -   -  16 20 mph 1025.7mb 50f 51f
4:50pm 7ft 14s 8s 13 18 mph 1025.8mb 50f 51f
4:20pm  -   -   -  16 20 mph 1026.1mb 50f 51f
3:50pm 8.5ft 12s 9s 16 20 mph 1026.4mb 50f 51f
3:20pm  -   -   -  13 18 mph 1026.5mb 51f 51f
2:50pm 6.5ft 14s 8s 18 22 mph 1026.5mb 50f 51f
2:20pm  -   -   -  18 22 mph 1026.5mb 50f 51f
1:50pm 8.5ft 12s 9s 20 25 mph 1026.3mb 50f 51f
1:20pm  -   -   -  18 20 mph 1026mb 51f 51f
12:50pm 8ft 14s 9s 16 18 mph 1026mb 51f 51f
12:20pm  -   -   -  16 18 mph 1025.9mb 51f 51f
11:50am 8ft 12s 9s 11 13 mph 1025.8mb 50f 51f
11:20am  -   -   -  9 11 mph 1025.9mb 50f 51f
10:50am 8ft 14s 9s 9 11 mph 1025.8mb 50f 50f
10:20am  -   -   -  13 18 mph 1025.7mb 50f 50f
9:50am 9ft 15s 10s 11 13 mph 1025.6mb 50f 50f
9:20am  -   -   -  4 7 mph 1025.5mb 50f 49f
8:50am 9ft 13s 10s 7 9 mph 1025.5mb 50f 49f
8:20am  -   -   -  4 7 mph 1025.4mb 49f 49f
7:50am 9ft 15s 10s 7 11 mph 1025mb 49f 50f
7:20am  -   -   -  7 9 mph 1024.8mb 49f 50f
6:50am 8ft 13s 10s 4 9 mph 1024.6mb 49f 50f
6:20am  -   -   -  7 9 mph 1024.3mb 49f 50f
5:50am 9ft 14s 10s 9 13 mph 1024.5mb 49f 50f
5:20am  -   -   -  7 9 mph 1024.7mb 49f 49f
4:50am 8.5ft 12s 9s 11 13 mph 1024.8mb 50f 50f
4:20am  -   -   -  18 22 mph 1024.9mb 50f 50f
3:50am 9.5ft 14s 10s 13 18 mph 1025mb 50f 50f
3:20am  -   -   -  7 11 mph 1024.8mb 50f 49f
2:50am 9ft 14s 9s 2 4 mph 1024.3mb 50f 48f
2:20am  -   -   -  4 7 mph 1024.1mb 50f 48f
1:50am 10.5ft 15s 10s 4 7 mph 1024.4mb 50f 49f
1:20am  -   -   -  4 7 mph 1024.4mb 50f 49f
12:50am 11.5ft 13s 11s 4 7 mph 1024.4mb 50f 49f
12:20am  -   -   -  2 7 mph 1024.1mb 50f 49f
Thu 04/16 11:50pm 11ft 15s 10s 9 11 mph 1024.3mb 50f 49f
11:20pm  -   -   -  13 18 mph 1024.4mb 50f 50f
10:50pm 12ft 13s 10s 11 16 mph 1024.4mb 50f 50f
10:20pm  -   -   -  9 11 mph 1024.5mb 50f 51f
9:50pm  -   -   -  9 11 mph 1024.5mb 50f 51f
9:20pm  -   -   -  9 13 mph 1024.6mb 50f 51f
8:50pm 11.5ft 15s 11s 9 11 mph 1024.5mb 50f 51f
8:20pm  -   -   -  9 13 mph 1024.6mb 50f 51f
7:50pm 11ft 16s 11s 7 11 mph 1024.7mb 50f 51f
7:20pm  -   -   -  4 9 mph 1024.8mb 51f 51f
6:50pm 10ft 15s 11s 7 11 mph 1025.2mb 52f 51f
6:20pm  -   -   -  9 13 mph 1025.4mb 51f 51f
5:50pm 10ft 14s 10s 9 13 mph 1025.9mb 52f 51f
5:20pm  -   -   -  9 11 mph 1026.2mb 52f 51f
4:50pm 10ft 16s 10s 7 9 mph 1026.5mb 52f 51f
4:20pm  -   -   -  2 4 mph 1026.8mb 52f 52f
3:50pm 10.5ft 17s 10s 2 7 mph 1027.2mb 52f 51f
3:20pm  -   -   -  4 7 mph 1027.5mb 51f 51f
2:50pm 10.5ft 12s 10s 7 9 mph 1027.6mb 51f 51f
2:20pm  -   -   -  7 11 mph 1027.9mb 51f 50f
1:50pm 10ft 13s 9s 7 9 mph 1028.1mb 51f 50f
1:20pm  -   -   -  7 9 mph 1028.4mb 51f 49f
12:50pm 12ft 13s 10s 4 7 mph 1028.6mb 50f 50f
12:20pm  -   -   -  2 4 mph 1029mb 50f 49f
11:50am 11ft 12s 10s  -  2 mph 1029.2mb 50f 49f
11:20am  -   -   -  4 9 mph 1029.5mb 49f 48f
10:50am 11.5ft 11s 10s 4 9 mph 1029.6mb 49f 47f
10:20am  -   -   -  7 11 mph 1029.6mb 49f 47f
9:50am 9ft 12s 10s 7 13 mph 1029.7mb 49f 47f
9:20am  -   -   -  11 13 mph 1029.8mb 49f 46f
8:50am 9.5ft 11s 10s 11 16 mph 1030.1mb 49f 46f
8:20am  -   -   -  7 11 mph 1030.1mb 49f 46f
7:50am 8.5ft 11s 10s 4 7 mph 1030.4mb 49f 46f
7:20am  -   -   -  7 11 mph 1030.3mb 50f 46f
6:50am 9ft 11s 10s 7 11 mph 1030.3mb 50f 46f
6:20am  -   -   -  7 11 mph 1030.4mb 50f 46f
5:50am 8ft 11s 9s 7 11 mph 1030.6mb 50f 47f
5:20am  -   -   -  7 9 mph 1030.7mb 50f 46f
4:50am 8ft 12s 9s 4 9 mph 1030.8mb 49f 47f
4:20am  -   -   -  4 7 mph 1031.1mb 49f 47f
3:50am 8ft 12s 9s 7 9 mph 1031.2mb 49f 47f
3:20am  -   -   -  7 9 mph 1031.1mb 49f 47f
2:50am 8.5ft 12s 9s 7 9 mph 1031.4mb 49f 47f
2:20am  -   -   -  4 9 mph 1031.6mb 49f 47f
1:50am 8.5ft 12s 9s 7 9 mph 1031.8mb 49f 47f
1:20am  -   -   -  9 11 mph 1031.9mb 49f 47f
12:50am 8.5ft 12s 9s 7 11 mph 1032.1mb 49f 47f
12:20am  -   -   -  7 11 mph 1032.1mb 49f 47f
Wed 04/15 11:50pm 8.5ft 10s 8s 9 11 mph 1032.3mb 49f 47f
11:20pm  -   -   -  7 9 mph 1032.5mb 49f 48f
10:50pm 8ft 11s 8s 7 9 mph 1032.7mb 49f 48f
10:20pm  -   -   -  4 7 mph 1032.8mb 49f 49f
9:50pm 9ft 11s 8s 4
mph
1032.7mb 49f 49f
9:20pm  -   -   -  4 7 mph 1032.8mb 49f 49f
8:50pm 8ft 10s 8s 4
mph
1032.7mb 49f 49f
8:20pm  -   -   -   -  2 mph 1032.7mb 49f 49f
7:50pm 7ft 11s 8s 4 7 mph 1032.8mb 49f 50f
7:20pm  -   -   -  4 7 mph 1033mb 50f 50f
6:50pm 6ft 11s 9s 4
mph
1033.2mb 50f 50f
6:20pm  -   -   -  4 7 mph 1033.4mb 50f 49f
5:50pm 6ft 10s 9s 7 9 mph 1033.6mb 50f 50f
5:20pm  -   -   -  7 9 mph 1033.8mb 50f 50f
4:50pm 5.5ft 11s 8s 9
mph
1034mb 50f 50f
4:20pm  -   -   -  7 9 mph 1034.1mb 50f 49f
3:50pm 6ft 11s 8s 7 9 mph 1034.4mb 50f 50f
3:20pm  -   -   -  7 9 mph 1034.5mb 50f 49f
2:50pm 6.5ft 11s 8s 9 11 mph 1034.6mb 50f 49f
2:20pm  -   -   -  11
mph
1034.6mb 50f 49f
1:50pm 6ft 11s 8s 9 11 mph 1034.6mb 50f 49f
1:20pm  -   -   -  9 11 mph 1034.6mb 50f 49f
12:50pm 6.5ft 11s 8s 9 11 mph 1034.5mb 50f 49f
12:20pm  -   -   -  4 9 mph 1034.5mb 49f 48f
11:50am 7ft 11s 8s  -  2 mph 1034.6mb 49f 47f
11:20am  -   -   -  2 4 mph 1034.5mb 49f 47f
10:50am 7ft 12s 8s 2 4 mph 1034.5mb 49f 46f
10:20am  -   -   -  2 7 mph 1034.4mb 49f 45f
9:50am 7.5ft 11s 8s 7 9 mph 1034.2mb 49f 45f
9:20am  -   -   -  9 11 mph 1034.2mb 49f 45f
8:50am 7.5ft 11s 8s 9 13 mph 1034mb 49f 44f
8:20am  -   -   -  11 16 mph 1033.7mb 49f 44f
7:50am 8ft 10s 8s 9 13 mph 1033.6mb 49f 43f
7:20am  -   -   -  9 13 mph 1033.4mb 49f 43f
6:50am 10ft 11s 9s 9 13 mph 1033.1mb 49f 43f
6:20am  -   -   -  9 11 mph 1032.9mb 49f 43f
5:50am 9.5ft 11s 9s 9 13 mph 1032.8mb 49f 43f
5:20am  -   -   -  7 9 mph 1032.5mb 49f 43f
4:50am 9.5ft 11s 9s 7 9 mph 1032.4mb 48f 44f
4:20am  -   -   -  7 9 mph 1032.2mb 49f 44f
3:50am 10ft 11s 9s 7 11 mph 1032mb 48f 45f
3:20am  -   -   -  4 9 mph 1032mb 49f 45f
2:50am 8ft 11s 8s 4 7 mph 1031.7mb 49f 45f
2:20am  -   -   -  4 7 mph 1031.9mb 49f 45f
1:50am 8.5ft 11s 8s 4 7 mph 1031.8mb 49f 47f
1:20am  -   -   -  7
mph
1031.6mb 49f 47f
12:50am 7ft 11s 8s 11 13 mph 1031.3mb 49f 48f
12:20am  -   -   -  13 16 mph 1031.2mb 49f 48f